sensor_id;sensor_type;location;lat;lon;timestamp;pressure;altitude;pressure_sealevel;temperature;humidity
24610;BME280;12758;47.890;11.694;2023-02-19T00:01:27;94289.69;;;9.82;100.00
24610;BME280;12758;47.890;11.694;2023-02-19T00:03:54;94285.69;;;9.79;100.00
24610;BME280;12758;47.890;11.694;2023-02-19T00:06:22;94289.84;;;9.85;100.00
24610;BME280;12758;47.890;11.694;2023-02-19T00:08:48;94285.88;;;9.83;100.00
24610;BME280;12758;47.890;11.694;2023-02-19T00:11:16;94279.22;;;9.89;100.00
24610;BME280;12758;47.890;11.694;2023-02-19T00:13:45;94284.41;;;9.76;100.00
24610;BME280;12758;47.890;11.694;2023-02-19T00:16:12;94272.63;;;9.81;100.00
24610;BME280;12758;47.890;11.694;2023-02-19T00:18:39;94268.00;;;9.82;100.00
24610;BME280;12758;47.890;11.694;2023-02-19T00:21:05;94274.03;;;9.78;100.00
24610;BME280;12758;47.890;11.694;2023-02-19T00:23:32;94261.16;;;9.84;100.00
24610;BME280;12758;47.890;11.694;2023-02-19T00:26:01;94258.94;;;9.86;100.00
24610;BME280;12758;47.890;11.694;2023-02-19T00:28:27;94260.53;;;9.87;100.00
24610;BME280;12758;47.890;11.694;2023-02-19T00:30:53;94257.16;;;9.82;100.00
24610;BME280;12758;47.890;11.694;2023-02-19T00:33:19;94255.91;;;9.88;100.00
24610;BME280;12758;47.890;11.694;2023-02-19T00:35:45;94251.28;;;9.88;100.00
24610;BME280;12758;47.890;11.694;2023-02-19T00:38:11;94257.78;;;9.78;100.00
24610;BME280;12758;47.890;11.694;2023-02-19T00:40:37;94253.16;;;9.79;100.00
24610;BME280;12758;47.890;11.694;2023-02-19T00:43:03;94252.84;;;9.80;100.00
24610;BME280;12758;47.890;11.694;2023-02-19T00:45:30;94262.34;;;9.69;100.00
24610;BME280;12758;47.890;11.694;2023-02-19T00:47:56;94247.28;;;9.86;100.00
24610;BME280;12758;47.890;11.694;2023-02-19T00:50:22;94251.59;;;9.87;100.00
24610;BME280;12758;47.890;11.694;2023-02-19T00:52:48;94248.25;;;9.90;100.00
24610;BME280;12758;47.890;11.694;2023-02-19T00:55:14;94253.34;;;9.83;100.00
24610;BME280;12758;47.890;11.694;2023-02-19T00:57:40;94245.97;;;9.74;100.00
24610;BME280;12758;47.890;11.694;2023-02-19T01:00:07;94250.41;;;9.70;100.00
24610;BME280;12758;47.890;11.694;2023-02-19T01:02:34;94246.59;;;9.71;100.00
24610;BME280;12758;47.890;11.694;2023-02-19T01:05:00;94242.13;;;9.75;100.00
24610;BME280;12758;47.890;11.694;2023-02-19T01:07:26;94235.47;;;9.82;100.00
24610;BME280;12758;47.890;11.694;2023-02-19T01:09:52;94230.66;;;9.78;100.00
24610;BME280;12758;47.890;11.694;2023-02-19T01:12:18;94226.66;;;9.67;100.00
24610;BME280;12758;47.890;11.694;2023-02-19T01:14:44;94225.88;;;9.75;100.00
24610;BME280;12758;47.890;11.694;2023-02-19T01:17:10;94216.47;;;9.82;100.00
24610;BME280;12758;47.890;11.694;2023-02-19T01:19:36;94215.72;;;9.90;100.00
24610;BME280;12758;47.890;11.694;2023-02-19T01:22:02;94207.44;;;9.95;100.00
24610;BME280;12758;47.890;11.694;2023-02-19T01:24:28;94201.69;;;9.88;100.00
24610;BME280;12758;47.890;11.694;2023-02-19T01:26:54;94205.97;;;9.80;100.00
24610;BME280;12758;47.890;11.694;2023-02-19T01:29:20;94197.88;;;9.89;100.00
24610;BME280;12758;47.890;11.694;2023-02-19T01:31:46;94190.69;;;9.93;100.00
24610;BME280;12758;47.890;11.694;2023-02-19T01:34:12;94199.94;;;9.92;100.00
24610;BME280;12758;47.890;11.694;2023-02-19T01:36:39;94194.16;;;9.76;100.00
24610;BME280;12758;47.890;11.694;2023-02-19T01:39:05;94188.91;;;9.79;100.00
24610;BME280;12758;47.890;11.694;2023-02-19T01:41:34;94178.41;;;9.87;100.00
24610;BME280;12758;47.890;11.694;2023-02-19T01:44:03;94183.03;;;9.95;100.00
24610;BME280;12758;47.890;11.694;2023-02-19T01:46:33;94190.81;;;9.88;100.00
24610;BME280;12758;47.890;11.694;2023-02-19T01:49:02;94184.41;;;9.75;100.00
24610;BME280;12758;47.890;11.694;2023-02-19T01:51:29;94178.06;;;9.79;100.00
24610;BME280;12758;47.890;11.694;2023-02-19T01:53:58;94182.34;;;9.72;100.00
24610;BME280;12758;47.890;11.694;2023-02-19T01:56:25;94176.31;;;9.84;100.00
24610;BME280;12758;47.890;11.694;2023-02-19T01:58:52;94168.78;;;9.63;100.00
24610;BME280;12758;47.890;11.694;2023-02-19T02:01:18;94172.91;;;9.69;100.00
24610;BME280;12758;47.890;11.694;2023-02-19T02:03:45;94176.41;;;9.61;100.00
24610;BME280;12758;47.890;11.694;2023-02-19T02:06:16;94166.69;;;9.60;100.00
24610;BME280;12758;47.890;11.694;2023-02-19T02:08:43;94172.69;;;9.48;100.00
24610;BME280;12758;47.890;11.694;2023-02-19T02:11:28;94167.56;;;9.47;100.00
24610;BME280;12758;47.890;11.694;2023-02-19T02:13:55;94160.44;;;9.51;100.00
24610;BME280;12758;47.890;11.694;2023-02-19T02:16:23;94163.97;;;9.60;100.00
24610;BME280;12758;47.890;11.694;2023-02-19T02:18:56;94176.06;;;9.54;100.00
24610;BME280;12758;47.890;11.694;2023-02-19T02:21:41;94174.75;;;9.43;100.00
24610;BME280;12758;47.890;11.694;2023-02-19T02:24:23;94169.47;;;9.38;100.00
24610;BME280;12758;47.890;11.694;2023-02-19T02:27:11;94170.56;;;9.37;100.00
24610;BME280;12758;47.890;11.694;2023-02-19T02:29:51;94160.34;;;9.33;100.00
24610;BME280;12758;47.890;11.694;2023-02-19T02:32:22;94154.31;;;9.37;100.00
24610;BME280;12758;47.890;11.694;2023-02-19T02:34:52;94158.16;;;9.36;100.00
24610;BME280;12758;47.890;11.694;2023-02-19T02:37:19;94160.97;;;9.30;100.00
24610;BME280;12758;47.890;11.694;2023-02-19T02:39:46;94174.69;;;9.34;100.00
24610;BME280;12758;47.890;11.694;2023-02-19T02:42:12;94165.47;;;9.35;100.00
24610;BME280;12758;47.890;11.694;2023-02-19T02:44:54;94142.50;;;9.32;100.00
24610;BME280;12758;47.890;11.694;2023-02-19T02:47:41;94141.09;;;9.35;100.00
24610;BME280;12758;47.890;11.694;2023-02-19T02:50:12;94144.25;;;9.28;100.00
24610;BME280;12758;47.890;11.694;2023-02-19T02:52:40;94144.72;;;9.30;100.00
24610;BME280;12758;47.890;11.694;2023-02-19T02:55:29;94139.31;;;9.30;100.00
24610;BME280;12758;47.890;11.694;2023-02-19T02:57:56;94119.72;;;9.25;100.00
24610;BME280;12758;47.890;11.694;2023-02-19T03:00:22;94116.97;;;9.16;100.00
24610;BME280;12758;47.890;11.694;2023-02-19T03:02:49;94119.25;;;9.31;100.00
24610;BME280;12758;47.890;11.694;2023-02-19T03:05:16;94107.09;;;9.20;100.00
24610;BME280;12758;47.890;11.694;2023-02-19T03:08:03;94105.78;;;9.09;100.00
24610;BME280;12758;47.890;11.694;2023-02-19T03:10:33;94111.19;;;9.09;100.00
24610;BME280;12758;47.890;11.694;2023-02-19T03:13:00;94105.16;;;9.12;100.00
24610;BME280;12758;47.890;11.694;2023-02-19T03:15:47;94103.06;;;9.09;100.00
24610;BME280;12758;47.890;11.694;2023-02-19T03:18:33;94106.59;;;9.09;100.00
24610;BME280;12758;47.890;11.694;2023-02-19T03:21:21;94098.31;;;9.15;100.00
24610;BME280;12758;47.890;11.694;2023-02-19T03:23:48;94098.13;;;9.11;100.00
24610;BME280;12758;47.890;11.694;2023-02-19T03:26:34;94094.97;;;9.18;100.00
24610;BME280;12758;47.890;11.694;2023-02-19T03:29:01;94098.13;;;9.11;100.00
24610;BME280;12758;47.890;11.694;2023-02-19T03:31:47;94096.88;;;9.17;100.00
24610;BME280;12758;47.890;11.694;2023-02-19T03:34:15;94099.13;;;9.24;100.00
24610;BME280;12758;47.890;11.694;2023-02-19T03:36:44;94100.22;;;9.14;100.00
24610;BME280;12758;47.890;11.694;2023-02-19T03:39:12;94110.91;;;9.19;100.00
24610;BME280;12758;47.890;11.694;2023-02-19T03:41:47;94115.00;;;9.08;100.00
24610;BME280;12758;47.890;11.694;2023-02-19T03:44:18;94114.75;;;9.18;100.00
24610;BME280;12758;47.890;11.694;2023-02-19T03:46:52;94121.59;;;9.16;100.00
24610;BME280;12758;47.890;11.694;2023-02-19T03:49:23;94121.88;;;9.14;100.00
24610;BME280;12758;47.890;11.694;2023-02-19T03:51:53;94128.41;;;9.13;100.00
24610;BME280;12758;47.890;11.694;2023-02-19T03:54:28;94143.69;;;9.09;100.00
24610;BME280;12758;47.890;11.694;2023-02-19T03:56:59;94147.50;;;9.08;100.00
24610;BME280;12758;47.890;11.694;2023-02-19T03:59:31;94146.53;;;9.04;100.00
24610;BME280;12758;47.890;11.694;2023-02-19T04:02:00;94141.56;;;8.97;100.00
24610;BME280;12758;47.890;11.694;2023-02-19T04:04:29;94154.75;;;8.99;100.00
24610;BME280;12758;47.890;11.694;2023-02-19T04:06:57;94156.16;;;8.88;100.00
24610;BME280;12758;47.890;11.694;2023-02-19T04:09:25;94164.78;;;8.90;100.00
24610;BME280;12758;47.890;11.694;2023-02-19T04:11:53;94148.66;;;8.84;100.00
24610;BME280;12758;47.890;11.694;2023-02-19T04:14:22;94165.81;;;8.80;100.00
24610;BME280;12758;47.890;11.694;2023-02-19T04:16:51;94147.69;;;8.80;100.00
24610;BME280;12758;47.890;11.694;2023-02-19T04:19:20;94157.41;;;8.59;100.00
24610;BME280;12758;47.890;11.694;2023-02-19T04:21:48;94173.25;;;8.52;100.00
24610;BME280;12758;47.890;11.694;2023-02-19T04:24:18;94172.91;;;8.45;100.00
24610;BME280;12758;47.890;11.694;2023-02-19T04:26:46;94170.13;;;8.22;100.00
24610;BME280;12758;47.890;11.694;2023-02-19T04:29:12;94182.78;;;8.13;100.00
24610;BME280;12758;47.890;11.694;2023-02-19T04:31:38;94183.09;;;7.98;100.00
24610;BME280;12758;47.890;11.694;2023-02-19T04:34:04;94170.44;;;7.84;100.00
24610;BME280;12758;47.890;11.694;2023-02-19T04:36:31;94173.72;;;7.81;100.00
24610;BME280;12758;47.890;11.694;2023-02-19T04:38:57;94208.47;;;7.74;100.00
24610;BME280;12758;47.890;11.694;2023-02-19T04:41:24;94175.44;;;7.77;100.00
24610;BME280;12758;47.890;11.694;2023-02-19T04:43:50;94173.00;;;7.89;100.00
24610;BME280;12758;47.890;11.694;2023-02-19T04:46:16;94161.91;;;7.91;100.00
24610;BME280;12758;47.890;11.694;2023-02-19T04:48:42;94160.31;;;7.76;100.00
24610;BME280;12758;47.890;11.694;2023-02-19T04:51:09;94140.38;;;8.00;100.00
24610;BME280;12758;47.890;11.694;2023-02-19T04:53:35;94134.56;;;7.92;100.00
24610;BME280;12758;47.890;11.694;2023-02-19T04:56:06;94140.09;;;7.87;100.00
24610;BME280;12758;47.890;11.694;2023-02-19T04:58:32;94152.63;;;7.83;100.00
24610;BME280;12758;47.890;11.694;2023-02-19T05:00:58;94154.53;;;7.69;100.00
24610;BME280;12758;47.890;11.694;2023-02-19T05:03:24;94155.59;;;7.82;100.00
24610;BME280;12758;47.890;11.694;2023-02-19T05:05:50;94172.47;;;8.01;100.00
24610;BME280;12758;47.890;11.694;2023-02-19T05:08:16;94162.41;;;7.79;100.00
24610;BME280;12758;47.890;11.694;2023-02-19T05:10:43;94174.97;;;7.61;100.00
24610;BME280;12758;47.890;11.694;2023-02-19T05:13:09;94157.44;;;7.59;100.00
24610;BME280;12758;47.890;11.694;2023-02-19T05:15:35;94176.44;;;7.54;100.00
24610;BME280;12758;47.890;11.694;2023-02-19T05:18:01;94179.47;;;7.38;100.00
24610;BME280;12758;47.890;11.694;2023-02-19T05:20:27;94177.84;;;7.37;100.00
24610;BME280;12758;47.890;11.694;2023-02-19T05:22:53;94183.34;;;7.46;100.00
24610;BME280;12758;47.890;11.694;2023-02-19T05:25:19;94173.25;;;7.52;100.00
24610;BME280;12758;47.890;11.694;2023-02-19T05:27:46;94182.25;;;7.47;100.00
24610;BME280;12758;47.890;11.694;2023-02-19T05:30:12;94186.25;;;7.36;100.00
24610;BME280;12758;47.890;11.694;2023-02-19T05:32:38;94185.75;;;7.47;100.00
24610;BME280;12758;47.890;11.694;2023-02-19T05:35:05;94181.84;;;7.26;100.00
24610;BME280;12758;47.890;11.694;2023-02-19T05:37:31;94166.44;;;7.40;100.00
24610;BME280;12758;47.890;11.694;2023-02-19T05:39:57;94166.44;;;7.40;100.00
24610;BME280;12758;47.890;11.694;2023-02-19T05:42:23;94180.66;;;7.32;100.00
24610;BME280;12758;47.890;11.694;2023-02-19T05:44:49;94180.25;;;7.53;100.00
24610;BME280;12758;47.890;11.694;2023-02-19T05:47:15;94185.63;;;7.25;100.00
24610;BME280;12758;47.890;11.694;2023-02-19T05:49:41;94188.66;;;7.37;100.00
24610;BME280;12758;47.890;11.694;2023-02-19T05:52:07;94181.16;;;7.48;100.00
24610;BME280;12758;47.890;11.694;2023-02-19T05:54:33;94180.47;;;7.42;100.00
24610;BME280;12758;47.890;11.694;2023-02-19T05:56:59;94190.75;;;7.54;100.00
24610;BME280;12758;47.890;11.694;2023-02-19T05:59:26;94196.84;;;7.60;100.00
24610;BME280;12758;47.890;11.694;2023-02-19T06:01:53;94193.25;;;7.51;100.00
24610;BME280;12758;47.890;11.694;2023-02-19T06:04:19;94191.84;;;7.67;100.00
24610;BME280;12758;47.890;11.694;2023-02-19T06:06:45;94193.16;;;7.69;100.00
24610;BME280;12758;47.890;11.694;2023-02-19T06:09:12;94181.53;;;7.69;100.00
24610;BME280;12758;47.890;11.694;2023-02-19T06:11:38;94185.75;;;7.75;100.00
24610;BME280;12758;47.890;11.694;2023-02-19T06:14:05;94185.25;;;7.45;100.00
24610;BME280;12758;47.890;11.694;2023-02-19T06:16:31;94192.25;;;7.74;100.00
24610;BME280;12758;47.890;11.694;2023-02-19T06:19:00;94203.88;;;7.61;100.00
24610;BME280;12758;47.890;11.694;2023-02-19T06:21:26;94197.25;;;7.67;100.00
24610;BME280;12758;47.890;11.694;2023-02-19T06:23:52;94211.06;;;7.65;100.00
24610;BME280;12758;47.890;11.694;2023-02-19T06:26:20;94213.56;;;7.62;100.00
24610;BME280;12758;47.890;11.694;2023-02-19T06:28:48;94218.84;;;7.67;100.00
24610;BME280;12758;47.890;11.694;2023-02-19T06:31:15;94213.25;;;7.50;100.00
24610;BME280;12758;47.890;11.694;2023-02-19T06:33:42;94234.88;;;7.50;100.00
24610;BME280;12758;47.890;11.694;2023-02-19T06:36:11;94234.03;;;7.21;100.00
24610;BME280;12758;47.890;11.694;2023-02-19T06:38:37;94245.81;;;7.12;100.00
24610;BME280;12758;47.890;11.694;2023-02-19T06:41:04;94254.22;;;7.10;100.00
24610;BME280;12758;47.890;11.694;2023-02-19T06:43:31;94255.00;;;7.11;100.00
24610;BME280;12758;47.890;11.694;2023-02-19T06:45:58;94258.38;;;7.03;100.00
24610;BME280;12758;47.890;11.694;2023-02-19T06:48:24;94270.50;;;6.86;100.00
24610;BME280;12758;47.890;11.694;2023-02-19T06:50:50;94262.25;;;6.96;100.00
24610;BME280;12758;47.890;11.694;2023-02-19T06:53:17;94267.63;;;6.96;100.00
24610;BME280;12758;47.890;11.694;2023-02-19T06:55:43;94260.09;;;6.80;100.00
24610;BME280;12758;47.890;11.694;2023-02-19T06:58:09;94276.94;;;6.90;100.00
24610;BME280;12758;47.890;11.694;2023-02-19T07:00:35;94286.97;;;7.04;100.00
24610;BME280;12758;47.890;11.694;2023-02-19T07:03:01;94278.38;;;7.02;100.00
24610;BME280;12758;47.890;11.694;2023-02-19T07:05:27;94291.66;;;6.79;100.00
24610;BME280;12758;47.890;11.694;2023-02-19T07:07:53;94279.72;;;6.85;100.00
24610;BME280;12758;47.890;11.694;2023-02-19T07:10:19;94272.97;;;7.02;100.00
24610;BME280;12758;47.890;11.694;2023-02-19T07:12:45;94284.78;;;7.06;100.00
24610;BME280;12758;47.890;11.694;2023-02-19T07:15:11;94280.41;;;7.10;100.00
24610;BME280;12758;47.890;11.694;2023-02-19T07:17:37;94276.38;;;7.07;100.00
24610;BME280;12758;47.890;11.694;2023-02-19T07:20:04;94267.22;;;7.22;100.00
24610;BME280;12758;47.890;11.694;2023-02-19T07:22:30;94280.13;;;7.25;100.00
24610;BME280;12758;47.890;11.694;2023-02-19T07:24:56;94287.00;;;7.17;100.00
24610;BME280;12758;47.890;11.694;2023-02-19T07:27:23;94277.81;;;7.18;100.00
24610;BME280;12758;47.890;11.694;2023-02-19T07:29:49;94298.03;;;7.35;100.00
24610;BME280;12758;47.890;11.694;2023-02-19T07:32:15;94284.88;;;7.47;100.00
24610;BME280;12758;47.890;11.694;2023-02-19T07:34:41;94295.28;;;7.40;100.00
24610;BME280;12758;47.890;11.694;2023-02-19T07:37:07;94299.09;;;7.53;100.00
24610;BME280;12758;47.890;11.694;2023-02-19T07:39:33;94300.41;;;7.55;100.00
24610;BME280;12758;47.890;11.694;2023-02-19T07:41:59;94310.09;;;7.42;100.00
24610;BME280;12758;47.890;11.694;2023-02-19T07:44:25;94309.09;;;7.38;100.00
24610;BME280;12758;47.890;11.694;2023-02-19T07:46:51;94313.72;;;7.52;100.00
24610;BME280;12758;47.890;11.694;2023-02-19T07:49:18;94308.91;;;7.49;100.00
24610;BME280;12758;47.890;11.694;2023-02-19T07:51:44;94319.25;;;7.41;100.00
24610;BME280;12758;47.890;11.694;2023-02-19T07:54:10;94313.31;;;7.58;100.00
24610;BME280;12758;47.890;11.694;2023-02-19T07:56:36;94303.81;;;7.61;100.00
24610;BME280;12758;47.890;11.694;2023-02-19T07:59:03;94315.22;;;7.58;100.00
24610;BME280;12758;47.890;11.694;2023-02-19T08:01:30;94315.94;;;7.77;100.00
24610;BME280;12758;47.890;11.694;2023-02-19T08:04:15;94307.25;;;7.80;100.00
24610;BME280;12758;47.890;11.694;2023-02-19T08:06:41;94322.34;;;7.81;100.00
24610;BME280;12758;47.890;11.694;2023-02-19T08:09:08;94325.72;;;7.73;100.00
24610;BME280;12758;47.890;11.694;2023-02-19T08:11:34;94322.44;;;7.76;100.00
24610;BME280;12758;47.890;11.694;2023-02-19T08:14:18;94323.94;;;7.82;100.00
24610;BME280;12758;47.890;11.694;2023-02-19T08:16:48;94326.56;;;7.87;100.00
24610;BME280;12758;47.890;11.694;2023-02-19T08:19:14;94324.16;;;8.00;100.00
24610;BME280;12758;47.890;11.694;2023-02-19T08:21:40;94331.25;;;7.96;100.00
24610;BME280;12758;47.890;11.694;2023-02-19T08:24:06;94330.66;;;7.99;100.00
24610;BME280;12758;47.890;11.694;2023-02-19T08:26:32;94335.97;;;8.04;100.00
24610;BME280;12758;47.890;11.694;2023-02-19T08:28:58;94340.19;;;8.10;100.00
24610;BME280;12758;47.890;11.694;2023-02-19T08:31:24;94337.50;;;8.10;100.00
24610;BME280;12758;47.890;11.694;2023-02-19T08:33:52;94336.28;;;8.16;100.00
24610;BME280;12758;47.890;11.694;2023-02-19T08:36:18;94332.47;;;8.17;100.00
24610;BME280;12758;47.890;11.694;2023-02-19T08:38:44;94335.38;;;8.21;100.00
24610;BME280;12758;47.890;11.694;2023-02-19T08:41:11;94336.59;;;8.28;100.00
24610;BME280;12758;47.890;11.694;2023-02-19T08:43:37;94345.00;;;8.27;100.00
24610;BME280;12758;47.890;11.694;2023-02-19T08:46:04;94349.59;;;8.26;100.00
24610;BME280;12758;47.890;11.694;2023-02-19T08:48:31;94344.06;;;8.31;100.00
24610;BME280;12758;47.890;11.694;2023-02-19T08:50:59;94355.03;;;8.40;100.00
24610;BME280;12758;47.890;11.694;2023-02-19T08:53:28;94347.63;;;8.46;100.00
24610;BME280;12758;47.890;11.694;2023-02-19T08:55:55;94355.13;;;8.49;100.00
24610;BME280;12758;47.890;11.694;2023-02-19T08:58:21;94339.19;;;8.61;100.00
24610;BME280;12758;47.890;11.694;2023-02-19T09:00:47;94344.19;;;8.54;100.00
24610;BME280;12758;47.890;11.694;2023-02-19T09:03:13;94335.47;;;8.57;100.00
24610;BME280;12758;47.890;11.694;2023-02-19T09:05:39;94342.97;;;8.60;100.00
24610;BME280;12758;47.890;11.694;2023-02-19T09:08:07;94345.19;;;8.58;100.00
24610;BME280;12758;47.890;11.694;2023-02-19T09:10:33;94346.69;;;8.64;100.00
24610;BME280;12758;47.890;11.694;2023-02-19T09:12:59;94348.66;;;8.72;100.00
24610;BME280;12758;47.890;11.694;2023-02-19T09:15:26;94350.97;;;8.79;100.00
24610;BME280;12758;47.890;11.694;2023-02-19T09:17:54;94334.91;;;8.82;100.00
24610;BME280;12758;47.890;11.694;2023-02-19T09:20:20;94340.72;;;8.90;100.00
24610;BME280;12758;47.890;11.694;2023-02-19T09:22:46;94333.06;;;8.92;100.00
24610;BME280;12758;47.890;11.694;2023-02-19T09:25:12;94338.25;;;9.02;100.00
24610;BME280;12758;47.890;11.694;2023-02-19T09:27:38;94351.78;;;9.02;100.00
24610;BME280;12758;47.890;11.694;2023-02-19T09:30:05;94340.84;;;9.07;100.00
24610;BME280;12758;47.890;11.694;2023-02-19T09:32:31;94336.84;;;9.04;100.00
24610;BME280;12758;47.890;11.694;2023-02-19T09:34:58;94327.25;;;8.98;100.00
24610;BME280;12758;47.890;11.694;2023-02-19T09:37:24;94334.84;;;9.10;100.00
24610;BME280;12758;47.890;11.694;2023-02-19T09:39:51;94343.50;;;9.21;100.00
24610;BME280;12758;47.890;11.694;2023-02-19T09:42:19;94329.31;;;9.38;100.00
24610;BME280;12758;47.890;11.694;2023-02-19T09:44:49;94339.63;;;9.58;100.00
24610;BME280;12758;47.890;11.694;2023-02-19T09:47:17;94338.16;;;9.52;100.00
24610;BME280;12758;47.890;11.694;2023-02-19T09:49:46;94348.50;;;9.50;100.00
24610;BME280;12758;47.890;11.694;2023-02-19T09:52:18;94346.38;;;9.69;100.00
24610;BME280;12758;47.890;11.694;2023-02-19T09:54:46;94343.69;;;9.47;100.00
24610;BME280;12758;47.890;11.694;2023-02-19T09:57:13;94342.34;;;9.36;100.00
24610;BME280;12758;47.890;11.694;2023-02-19T09:59:43;94347.22;;;9.25;100.00
24610;BME280;12758;47.890;11.694;2023-02-19T10:02:13;94356.81;;;9.08;100.00
24610;BME280;12758;47.890;11.694;2023-02-19T10:04:41;94358.66;;;8.85;100.00
24610;BME280;12758;47.890;11.694;2023-02-19T10:07:09;94371.47;;;8.57;100.00
24610;BME280;12758;47.890;11.694;2023-02-19T10:09:36;94389.78;;;7.73;100.00
24610;BME280;12758;47.890;11.694;2023-02-19T10:12:03;94394.47;;;7.34;100.00
24610;BME280;12758;47.890;11.694;2023-02-19T10:14:52;94398.28;;;6.95;100.00
24610;BME280;12758;47.890;11.694;2023-02-19T10:17:22;94404.19;;;6.79;100.00
24610;BME280;12758;47.890;11.694;2023-02-19T10:19:49;94413.72;;;6.71;100.00
24610;BME280;12758;47.890;11.694;2023-02-19T10:22:15;94434.25;;;6.67;100.00
24610;BME280;12758;47.890;11.694;2023-02-19T10:24:41;94428.06;;;6.66;100.00
24610;BME280;12758;47.890;11.694;2023-02-19T10:27:11;94434.16;;;6.53;100.00
24610;BME280;12758;47.890;11.694;2023-02-19T10:29:37;94433.69;;;6.70;100.00
24610;BME280;12758;47.890;11.694;2023-02-19T10:32:13;94444.03;;;6.63;100.00
24610;BME280;12758;47.890;11.694;2023-02-19T10:34:42;94436.38;;;6.70;100.00
24610;BME280;12758;47.890;11.694;2023-02-19T10:37:10;94436.38;;;6.70;100.00
24610;BME280;12758;47.890;11.694;2023-02-19T10:39:39;94438.63;;;6.63;100.00
24610;BME280;12758;47.890;11.694;2023-02-19T10:42:13;94449.78;;;6.56;100.00
24610;BME280;12758;47.890;11.694;2023-02-19T10:44:41;94445.63;;;6.64;100.00
24610;BME280;12758;47.890;11.694;2023-02-19T10:47:08;94443.28;;;6.81;100.00
24610;BME280;12758;47.890;11.694;2023-02-19T10:49:41;94448.66;;;6.81;100.00
24610;BME280;12758;47.890;11.694;2023-02-19T10:52:11;94444.81;;;6.87;100.00
24610;BME280;12758;47.890;11.694;2023-02-19T10:54:42;94440.09;;;6.74;100.00
24610;BME280;12758;47.890;11.694;2023-02-19T10:57:26;94442.16;;;6.82;100.00
24610;BME280;12758;47.890;11.694;2023-02-19T10:59:56;94438.84;;;6.90;100.00
24610;BME280;12758;47.890;11.694;2023-02-19T11:02:22;94447.94;;;6.94;100.00
24610;BME280;12758;47.890;11.694;2023-02-19T11:07:47;94452.03;;;6.92;100.00
24610;BME280;12758;47.890;11.694;2023-02-19T11:10:23;94464.53;;;7.07;100.00
24610;BME280;12758;47.890;11.694;2023-02-19T11:12:50;94457.66;;;6.95;100.00
24610;BME280;12758;47.890;11.694;2023-02-19T11:15:20;94458.03;;;7.08;100.00
24610;BME280;12758;47.890;11.694;2023-02-19T11:17:53;94448.91;;;7.04;100.00
24610;BME280;12758;47.890;11.694;2023-02-19T11:20:20;94441.00;;;6.88;100.00
24610;BME280;12758;47.890;11.694;2023-02-19T11:22:46;94451.38;;;6.81;100.00
24610;BME280;12758;47.890;11.694;2023-02-19T11:25:18;94443.19;;;6.86;100.00
24610;BME280;12758;47.890;11.694;2023-02-19T11:27:53;94442.69;;;6.84;100.00
24610;BME280;12758;47.890;11.694;2023-02-19T11:30:30;94451.63;;;6.80;100.00
24610;BME280;12758;47.890;11.694;2023-02-19T11:33:01;94445.75;;;6.78;100.00
24610;BME280;12758;47.890;11.694;2023-02-19T11:35:38;94438.94;;;6.80;100.00
24610;BME280;12758;47.890;11.694;2023-02-19T11:38:07;94447.94;;;6.75;100.00
24610;BME280;12758;47.890;11.694;2023-02-19T11:40:39;94440.47;;;6.67;100.00
24610;BME280;12758;47.890;11.694;2023-02-19T11:43:11;94432.66;;;6.66;100.00
24610;BME280;12758;47.890;11.694;2023-02-19T11:45:47;94427.81;;;6.68;100.00
24610;BME280;12758;47.890;11.694;2023-02-19T11:48:25;94424.44;;;6.76;100.00
24610;BME280;12758;47.890;11.694;2023-02-19T11:51:02;94429.22;;;6.84;100.00
24610;BME280;12758;47.890;11.694;2023-02-19T11:53:31;94423.91;;;6.74;100.00
24610;BME280;12758;47.890;11.694;2023-02-19T11:56:07;94432.41;;;6.86;100.00
24610;BME280;12758;47.890;11.694;2023-02-19T11:58:45;94424.03;;;6.88;100.00
24610;BME280;12758;47.890;11.694;2023-02-19T12:01:15;94422.19;;;6.83;100.00
24610;BME280;12758;47.890;11.694;2023-02-19T12:04:02;94438.00;;;6.71;100.00
24610;BME280;12758;47.890;11.694;2023-02-19T12:06:35;94432.16;;;6.64;100.00
24610;BME280;12758;47.890;11.694;2023-02-19T12:09:32;94438.06;;;6.66;100.00
24610;BME280;12758;47.890;11.694;2023-02-19T12:12:18;94435.41;;;6.61;100.00
24610;BME280;12758;47.890;11.694;2023-02-19T12:15:07;94431.28;;;6.68;100.00
24610;BME280;12758;47.890;11.694;2023-02-19T12:17:51;94420.28;;;6.65;100.00
24610;BME280;12758;47.890;11.694;2023-02-19T12:20:25;94427.84;;;6.63;100.00
24610;BME280;12758;47.890;11.694;2023-02-19T12:23:08;94428.81;;;6.72;100.00
24610;BME280;12758;47.890;11.694;2023-02-19T12:25:48;94432.66;;;6.66;100.00
24610;BME280;12758;47.890;11.694;2023-02-19T12:28:36;94426.69;;;6.69;100.00
24610;BME280;12758;47.890;11.694;2023-02-19T12:31:20;94421.44;;;6.59;100.00
24610;BME280;12758;47.890;11.694;2023-02-19T12:34:04;94420.19;;;6.70;100.00
24610;BME280;12758;47.890;11.694;2023-02-19T12:36:38;94425.69;;;6.65;100.00
24610;BME280;12758;47.890;11.694;2023-02-19T12:39:13;94429.31;;;6.74;100.00
24610;BME280;12758;47.890;11.694;2023-02-19T12:41:45;94437.34;;;6.79;100.00
24610;BME280;12758;47.890;11.694;2023-02-19T12:44:15;94427.28;;;6.66;100.00
24610;BME280;12758;47.890;11.694;2023-02-19T12:46:45;94436.78;;;6.82;100.00
24610;BME280;12758;47.890;11.694;2023-02-19T12:49:15;94443.09;;;6.72;100.00
24610;BME280;12758;47.890;11.694;2023-02-19T12:51:45;94443.31;;;6.76;100.00
24610;BME280;12758;47.890;11.694;2023-02-19T12:54:15;94441.66;;;6.80;100.00
24610;BME280;12758;47.890;11.694;2023-02-19T12:56:45;94452.66;;;6.65;100.00
24610;BME280;12758;47.890;11.694;2023-02-19T12:59:14;94460.09;;;6.73;100.00
24610;BME280;12758;47.890;11.694;2023-02-19T13:01:44;94462.78;;;6.73;100.00
24610;BME280;12758;47.890;11.694;2023-02-19T13:04:23;94448.06;;;6.65;100.00